Decoded Metar for KGJT (GRAND JUNCTION in CO, USA) (IATA:GJT) | Meteo·Mobile Aviation Weather
aviador You're here:

KGJT Decoded Metar

GRAND JUNCTION in CO, USA
Report Time2019-01-21 15:53:00
UTC Time2019-01-21 16:00:33
Flight Rules vfr VFR
Wind130° at 09 kt
W.Decomp.*RWY 11: 8.9 kt HW 1.1 kt RCW
RWY 04: 2.0 kt HW 8.8 kt RCW
W.Rank130° ranks 3
Current wind is above 130° avg. (8.5)
Visibility9999 m
Phenomena:N/A
Clouds:Broken 090 Hf
Overcast 110 Hf
Expected CloudBase > 1,600 ft AGL from Temp-Dew spread
Ceiling9,000 ft
Temp02°C (ISA -3)
Dew Point-2°C (75% RH)
AAT-3.5°C
QNH1002 hPa
Density Alt4,892 ft
Elevation4,839 ft
Report Wrong Elevation
Raw Report
METAR KGJT 211553Z 13009KT 10SM BKN090 OVC110 02/M02 A2958 RMK AO2
SLP021 T00171022=

Extra information for KGJT:More info

Metar Taf Metar & Taf Last 4 Metars F.Rules Stats Wind Profile Meteogram Temp Stats Airport Information Weather charts Add Link Nearby VenuesMetar ALERT Operation Metar Decoded Social comments

AIRNAV info for KGJT